Currently 40°F in Pinon Hills, California, USA
40°F
41°F / 37°F
1 mph S
0.00"
Thursday, February 2, 2023 7:27 AM PST

Pinon Hills, California Weather Summary
Last 36 Hours

Temperature Winds Hourly Humidity Dewpoint
Time Report Norm Report Norm Max Gusts Precip. Rpt. Norm Rpt. Norm Pressure
1Thu 07:27 AM  39.7°F  44°F  1 mph S  2 mph  3 mph  0.00"  46%  51%  20°F  26°F  30.12"
Thu 07:00 AM  37.2°F  43°F  2 mph SW  3 mph  4 mph  0.00"  49%  52%  19°F  25°F  30.12"
3Thu 06:49 AM  36.9°F  43°F  3 mph SW  3 mph  4 mph  ----  50%  52%  19°F  25°F  30.11"
Thu 06:00 AM  39.8°F  43°F  calm  3 mph  5 mph  0.00"  46%  52%  19°F  25°F  30.10"
Thu 05:00 AM  38.2°F  43°F  3 mph SW  3 mph  4 mph  0.00"  49%  52%  20°F  26°F  30.09"
Thu 04:00 AM  38.2°F  43°F  2 mph SW  3 mph  5 mph  0.00"  48%  51%  19°F  26°F  30.09"
Thu 03:00 AM  37.8°F  44°F  2 mph S  3 mph  5 mph  0.00"  46%  51%  18°F  26°F  30.09"
Thu 02:00 AM  37.2°F  44°F  3 mph SW  3 mph  4 mph  0.00"  47%  51%  18°F  26°F  30.09"
Thu 01:00 AM  39.6°F  44°F  2 mph SW  3 mph  5 mph  0.00"  45%  50%  19°F  26°F  30.08"
2Thu 12:00 AM  40.9°F  44°F  2 mph S  3 mph  7 mph  0.00"  42%  50%  19°F  26°F  30.07"
Wed 11:00 PM  38.1°F  44°F  calm  3 mph  5 mph  0.00"  45%  51%  18°F  26°F  30.07"
Wed 10:00 PM  38.2°F  45°F  calm  3 mph  5 mph  0.00"  44%  51%  17°F  27°F  30.05"
Wed 09:00 PM  40.3°F  45°F  calm  3 mph  4 mph  0.00"  38%  51%  15°F  27°F  30.04"
Wed 08:00 PM  40.7°F  45°F  calm  3 mph  5 mph  0.00"  35%  50%  14°F  27°F  30.03"
Wed 07:00 PM  40.7°F  46°F  3 mph SW  3 mph  7 mph  0.00"  33%  51%  13°F  27°F  30.02"
Wed 06:00 PM  39.9°F  46°F  3 mph SW  3 mph  5 mph  0.00"  35%  51%  13°F  28°F  30.02"
Wed 05:00 PM  46.2°F  50°F  calm  2 mph  1 mph  0.00"  33%  46%  17°F  29°F  30.00"
Wed 04:00 PM  49.6°F  54°F  calm  3 mph  2 mph  0.00"  26%  40%  15°F  29°F  29.98"
Wed 03:00 PM  50.8°F  55°F  1 mph SE  3 mph  6 mph  0.00"  26%  38%  15°F  29°F  29.98"
Wed 02:00 PM  50.8°F  55°F  calm  3 mph  9 mph  0.00"  26%  38%  16°F  29°F  29.98"
Wed 01:00 PM  48.3°F  55°F  3 mph NE  4 mph  9 mph  0.00"  28%  39%  16°F  29°F  29.98"
Wed 12:00 PM  49.2°F  54°F  1 mph SE  3 mph  9 mph  0.00"  28%  40%  16°F  29°F  30.00"
Wed 11:00 AM  48.4°F  53°F  4 mph E  3 mph  9 mph  0.00"  27%  42%  14°F  29°F  30.03"
Wed 10:00 AM  47.6°F  51°F  calm  3 mph  2 mph  0.00"  25%  43%  11°F  29°F  30.03"
Wed 09:00 AM  44.1°F  49°F  calm  3 mph  9 mph  0.00"  26%  46%  10°F  28°F  30.03"
Wed 08:00 AM  40.2°F  46°F  calm  2 mph  9 mph  0.00"  31%  49%  10°F  27°F  30.01"
Wed 07:00 AM  33.9°F  42°F  4 mph SW  2 mph  7 mph  0.00"  37%  53%  9°F  26°F  30.00"
Wed 06:00 AM  33.2°F  42°F  2 mph S  3 mph  7 mph  0.00"  38%  53%  9°F  26°F  30.00"
Wed 05:00 AM  33.1°F  43°F  3 mph SW  3 mph  5 mph  0.00"  38%  52%  9°F  26°F  29.98"
Wed 04:00 AM  33.8°F  43°F  3 mph SW  3 mph  6 mph  0.00"  35%  52%  8°F  26°F  29.98"
Wed 03:00 AM  34.2°F  43°F  2 mph S  3 mph  7 mph  0.00"  35%  52%  8°F  26°F  29.97"
Wed 02:00 AM  34.6°F  43°F  2 mph SE  3 mph  7 mph  0.00"  32%  52%  7°F  26°F  29.98"
Wed 01:00 AM  34.6°F  44°F  2 mph S  3 mph  9 mph  0.00"  34%  51%  7°F  26°F  29.97"
Wed 12:00 AM  35.4°F  44°F  2 mph S  3 mph  10 mph  0.00"  33%  50%  8°F  26°F  29.97"
Tue 11:00 PM  34.5°F  44°F  2 mph S  3 mph  7 mph  0.00"  33%  51%  7°F  27°F  29.97"
Tue 10:00 PM  34.4°F  44°F  3 mph S  3 mph  8 mph  0.00"  33%  51%  7°F  27°F  29.97"
Tue 09:00 PM  34.4°F  45°F  4 mph S  3 mph  6 mph  0.00"  33%  52%  7°F  27°F  29.96"
Tue 08:00 PM  34.6°F  45°F  3 mph S  3 mph  8 mph  0.00"  34%  51%  8°F  27°F  29.95"

  1. Current weather data. No green row appears if the current weather data is also the high or low for the current day.
  2. High temperature for the current day.
  3. Low temperature for the current day.

The Pinon Hills, California weather pages are a service of WeatherCurrents.
Copyright ©2023  WeatherCurrents. All rights reserved. - Submit questions and comments - Privacy Policy

This page automatically refreshes every 10 minutes.